Time;durP1;ratioP1;P1;durP2;ratioP2;P2;SDS_P1;SDS_P2;PMS_P1;PMS_P2;Temp;Humidity;BMP_temperature;BMP_pressure;BME280_temperature;BME280_humidity;BME280_pressure;Samples;Min_cycle;Max_cycle;Signal;HPM_P1;HPM_P2
2021/12/13 00:01:31;;;;;;;7.88;5.80;;;;;;;18.53;38.98;101942.25;5054867;28;20045;-77
2021/12/13 00:04:18;;;;;;;5.38;4.70;;;;;;;18.54;39.07;101937.75;5054031;28;20048;-77
2021/12/13 00:07:10;;;;;;;6.10;5.32;;;;;;;18.54;38.92;101935.91;5054340;28;20056;-77
2021/12/13 00:09:44;;;;;;;6.53;5.57;;;;;;;18.55;38.95;101934.09;5053854;28;20049;-77
2021/12/13 00:12:28;;;;;;;8.43;5.43;;;;;;;18.56;38.83;101929.63;5054541;28;20045;-77
2021/12/13 00:14:57;;;;;;;7.22;5.45;;;;;;;18.57;38.90;101923.28;5052509;28;20057;-77
2021/12/13 00:17:28;;;;;;;6.32;5.50;;;;;;;18.57;38.96;101928.66;5053105;28;20381;-76
2021/12/13 00:20:05;;;;;;;7.15;5.30;;;;;;;18.57;38.96;101934.00;5054406;28;20045;-76
2021/12/13 00:22:37;;;;;;;6.10;5.22;;;;;;;18.57;39.02;101923.28;5054201;28;20049;-76
2021/12/13 00:25:13;;;;;;;6.35;4.88;;;;;;;18.57;39.06;101916.09;5053796;28;20095;-76
2021/12/13 00:27:45;;;;;;;6.82;5.35;;;;;;;18.57;39.12;101915.25;5054437;28;20045;-76
2021/12/13 00:30:26;;;;;;;6.53;5.50;;;;;;;18.56;39.30;101909.03;5054441;28;20051;-76
2021/12/13 00:33:27;;;;;;;7.28;5.57;;;;;;;18.57;39.19;101917.91;5054147;28;20048;-77
2021/12/13 00:36:24;;;;;;;6.00;5.38;;;;;;;18.56;39.34;101918.88;5054118;28;20052;-76
2021/12/13 00:38:57;;;;;;;8.38;6.05;;;;;;;18.54;39.20;101911.78;5051591;28;20056;-76
2021/12/13 00:41:29;;;;;;;7.10;5.95;;;;;;;18.56;39.07;101917.06;5053478;28;20476;-77
2021/12/13 00:44:04;;;;;;;6.82;5.70;;;;;;;18.54;39.20;101906.41;5053847;28;20055;-77
2021/12/13 00:46:33;;;;;;;6.10;5.10;;;;;;;18.53;39.33;101912.75;5052952;28;20044;-77
2021/12/13 00:49:05;;;;;;;5.68;5.13;;;;;;;18.53;39.15;101910.06;5053408;28;20404;-77
2021/12/13 00:51:36;;;;;;;7.72;5.60;;;;;;;18.54;39.26;101919.81;5054040;28;20052;-77
2021/12/13 00:54:12;;;;;;;8.77;5.88;;;;;;;18.53;39.43;101910.06;5053357;28;20052;-77
2021/12/13 00:56:56;;;;;;;6.43;5.30;;;;;;;18.54;39.40;101916.28;5051872;28;20492;-77
2021/12/13 00:59:23;;;;;;;7.30;5.72;;;;;;;18.53;39.36;101910.06;5053359;28;20053;-77
2021/12/13 01:02:14;;;;;;;6.35;5.68;;;;;;;18.53;39.43;101914.56;5053615;28;20048;-77
2021/12/13 01:05:04;;;;;;;7.80;5.70;;;;;;;18.52;39.59;101924.44;5031362;28;20061;-77
2021/12/13 01:08:04;;;;;;;7.43;4.97;;;;;;;18.52;39.50;101927.13;5031569;28;20057;-77
2021/12/13 01:10:53;;;;;;;6.05;5.45;;;;;;;18.52;39.54;101907.50;5031775;28;20064;-77
2021/12/13 01:13:26;;;;;;;6.85;5.80;;;;;;;18.52;39.59;101907.50;5014422;28;20559;-77
2021/12/13 01:16:22;;;;;;;;;;;;;;;18.52;39.74;101912.84;5032198;28;20057;-77
2021/12/13 01:19:27;;;;;;;6.50;5.15;;;;;;;18.51;39.51;101914.69;5031552;28;19928;-77
2021/12/13 01:27:54;;;;;;;8.27;5.90;;;;;;;18.52;39.00;101910.19;5031223;28;20050;-77
2021/12/13 01:30:34;;;;;;;6.13;5.47;;;;;;;18.51;38.91;101911.13;5031528;28;20274;-77
2021/12/13 01:33:06;;;;;;;7.05;5.68;;;;;;;18.51;39.06;101905.75;5031686;28;20473;-76
2021/12/13 01:35:38;;;;;;;6.93;5.13;;;;;;;18.51;39.13;101916.47;5031181;28;20061;-77
2021/12/13 01:38:15;;;;;;;6.30;5.68;;;;;;;18.51;39.13;101914.69;5030721;28;20057;-77
2021/12/13 01:40:53;;;;;;;6.00;5.40;;;;;;;18.52;39.05;101910.19;5030961;28;20053;-76
2021/12/13 01:43:28;;;;;;;7.50;6.03;;;;;;;18.50;39.20;101910.25;5052654;28;20037;-77
2021/12/13 01:45:57;;;;;;;6.03;5.20;;;;;;;18.52;39.12;101910.19;5053458;28;20049;-76
2021/12/13 01:48:35;;;;;;;7.00;5.55;;;;;;;18.52;39.27;101904.81;5051260;28;20496;-77
2021/12/13 01:51:10;;;;;;;5.72;4.97;;;;;;;18.51;39.20;101898.59;5054821;28;20041;-76
2021/12/13 01:53:53;;;;;;;5.43;4.82;;;;;;;18.50;39.27;101896.84;5057370;28;20473;-77
2021/12/13 02:02:27;;;;;;;7.22;5.78;;;;;;;18.50;39.23;101883.44;5034858;28;20058;-77
2021/12/13 02:05:20;;;;;;;6.57;5.45;;;;;;;18.49;39.38;101891.59;5018084;28;20535;-77
2021/12/13 02:07:58;;;;;;;5.53;4.97;;;;;;;18.49;39.33;101891.59;5034574;28;20072;-76
2021/12/13 02:10:29;;;;;;;7.18;5.38;;;;;;;18.49;39.26;101894.28;5034530;28;20053;-76
2021/12/13 02:13:07;;;;;;;6.15;5.30;;;;;;;18.49;39.42;101891.59;5034796;28;20054;-76
2021/12/13 02:18:30;;;;;;;6.03;5.00;;;;;;;18.48;39.46;101901.47;5034940;28;20057;-76
2021/12/13 02:21:06;;;;;;;6.50;5.43;;;;;;;18.48;39.47;101896.09;5034397;28;20057;-76
2021/12/13 02:23:38;;;;;;;6.65;5.47;;;;;;;18.47;39.35;101902.44;5017388;28;20057;-76
2021/12/13 02:26:07;;;;;;;5.88;4.95;;;;;;;18.49;39.40;101896.97;5034931;28;20491;-77
2021/12/13 02:28:39;;;;;;;6.00;5.28;;;;;;;18.48;39.35;101893.44;5034426;28;20049;-76
2021/12/13 02:31:19;;;;;;;7.43;5.68;;;;;;;18.48;39.16;101900.63;5034416;28;20050;-76
2021/12/13 02:33:51;;;;;;;6.72;5.15;;;;;;;18.48;39.35;101903.28;5034076;28;20088;-77
2021/12/13 02:36:27;;;;;;;7.53;5.55;;;;;;;18.47;39.25;101905.13;5034705;28;20061;-77
2021/12/13 02:38:58;;;;;;;5.53;4.95;;;;;;;18.47;39.33;101906.91;5041708;28;20174;-77
2021/12/13 02:41:29;;;;;;;7.10;5.03;;;;;;;18.48;39.34;101914.03;5055736;28;20080;-77
2021/12/13 02:44:08;;;;;;;6.20;5.25;;;;;;;18.47;39.12;101910.47;5056248;28;20045;-77
2021/12/13 02:46:38;;;;;;;6.22;5.57;;;;;;;18.46;39.00;101908.75;5056374;28;20412;-77
2021/12/13 02:49:12;;;;;;;5.30;4.68;;;;;;;18.46;39.18;101907.88;5056019;28;20048;-77
2021/12/13 02:51:44;;;;;;;6.03;5.25;;;;;;;18.46;39.22;101903.38;5055973;28;20049;-77
2021/12/13 02:54:19;;;;;;;6.47;5.28;;;;;;;18.46;39.13;101906.06;5055819;28;20056;-77
2021/12/13 02:56:58;;;;;;;9.35;5.43;;;;;;;18.45;39.28;101901.66;5055950;28;20049;-77
2021/12/13 02:59:29;;;;;;;6.03;4.65;;;;;;;18.46;39.26;101908.75;5055743;28;20052;-77
2021/12/13 03:02:20;;;;;;;6.07;5.40;;;;;;;18.46;39.34;101911.41;5055697;28;20040;-77
2021/12/13 03:04:49;;;;;;;7.63;5.53;;;;;;;18.44;39.20;101909.81;5055493;28;20056;-77
2021/12/13 03:07:20;;;;;;;6.15;4.80;;;;;;;18.45;39.15;101909.72;5054018;28;20037;-77
2021/12/13 03:09:52;;;;;;;5.82;4.68;;;;;;;18.45;39.27;101911.53;5055907;28;20075;-77
2021/12/13 03:12:22;;;;;;;6.60;4.82;;;;;;;18.44;39.12;101916.03;5053801;28;20053;-77
2021/12/13 03:14:55;;;;;;;5.68;4.35;;;;;;;18.43;39.00;101914.31;5055535;28;20354;-77
2021/12/13 03:17:29;;;;;;;6.20;4.85;;;;;;;18.43;38.99;101917.00;5055452;28;20052;-77
2021/12/13 03:20:24;;;;;;;5.65;4.80;;;;;;;18.43;39.20;101914.31;5055743;28;20395;-77
2021/12/13 03:23:10;;;;;;;7.53;5.15;;;;;;;18.43;39.19;101926.84;5055654;28;20488;-77
2021/12/13 03:25:37;;;;;;;6.75;5.20;;;;;;;18.43;39.01;101921.47;5055427;28;20049;-77
2021/12/13 03:28:26;;;;;;;5.32;4.75;;;;;;;18.42;39.03;101923.31;5055325;28;20052;-77
2021/12/13 03:30:58;;;;;;;5.95;4.72;;;;;;;18.42;38.96;101922.44;5055343;28;20049;-77
2021/12/13 03:33:37;;;;;;;6.00;4.78;;;;;;;18.42;38.74;101907.22;5055013;28;20496;-77
2021/12/13 03:36:08;;;;;;;6.32;4.70;;;;;;;18.41;38.88;101900.16;5055187;28;20048;-77
2021/12/13 03:38:42;;;;;;;6.72;4.80;;;;;;;18.42;38.85;101903.69;5054205;28;20045;-76
2021/12/13 03:41:15;;;;;;;5.75;5.13;;;;;;;18.40;39.01;101895.75;5054635;28;20053;-76
2021/12/13 03:43:51;;;;;;;6.05;4.80;;;;;;;18.40;38.83;101902.94;5055176;28;20387;-76
2021/12/13 03:46:22;;;;;;;7.35;4.68;;;;;;;18.40;39.00;101900.25;5053916;28;20075;-77
2021/12/13 03:48:52;;;;;;;5.07;4.38;;;;;;;18.40;38.98;101894.91;5053413;28;20053;-76
2021/12/13 03:51:24;;;;;;;5.05;4.25;;;;;;;18.40;38.72;101908.31;5054284;28;20044;-76
2021/12/13 03:53:55;;;;;;;6.43;4.55;;;;;;;18.40;38.78;101910.97;5054526;28;20056;-77
2021/12/13 03:56:29;;;;;;;6.15;4.32;;;;;;;18.39;38.84;101918.16;5054551;28;20044;-77
2021/12/13 03:59:09;;;;;;;5.13;4.00;;;;;;;18.39;38.59;101914.59;5055014;28;20052;-77
2021/12/13 04:01:45;;;;;;;5.93;4.55;;;;;;;18.38;38.86;101915.56;5054364;28;20045;-77
2021/12/13 04:04:21;;;;;;;5.90;3.95;;;;;;;18.39;38.70;101906.56;5054400;28;20495;-76
2021/12/13 04:06:53;;;;;;;4.95;4.20;;;;;;;18.38;38.84;101905.69;5054886;28;20063;-76
2021/12/13 04:09:22;;;;;;;5.07;3.92;;;;;;;18.38;38.74;101903.00;5053417;28;20496;-76
2021/12/13 04:11:55;;;;;;;13.50;4.20;;;;;;;18.37;38.81;101901.31;5053984;28;20038;-76
2021/12/13 04:14:31;;;;;;;5.63;4.80;;;;;;;18.37;38.88;101887.91;5054228;28;20049;-77
2021/12/13 04:17:36;;;;;;;5.00;4.30;;;;;;;18.38;38.67;101894.13;5053950;28;20049;-76
2021/12/13 04:20:09;;;;;;;5.85;3.97;;;;;;;18.37;38.80;101898.63;5053353;28;20420;-77
2021/12/13 04:22:40;;;;;;;5.70;3.97;;;;;;;18.37;38.78;101898.63;5054510;28;20056;-76
2021/12/13 04:25:21;;;;;;;4.50;3.45;;;;;;;18.37;38.72;101898.63;5054599;28;20468;-77
2021/12/13 04:28:04;;;;;;;4.68;3.30;;;;;;;18.37;38.71;101900.44;5054208;28;20068;-77
2021/12/13 04:30:41;;;;;;;5.43;4.00;;;;;;;18.37;38.72;101900.44;5053822;28;20045;-77
2021/12/13 04:33:18;;;;;;;7.78;3.65;;;;;;;18.36;38.74;101891.53;5053985;28;20476;-77
2021/12/13 04:35:50;;;;;;;4.80;3.50;;;;;;;18.36;38.75;101896.06;5053806;28;20056;-77
2021/12/13 04:38:22;;;;;;;4.15;3.40;;;;;;;18.36;38.66;101896.91;5054337;28;20052;-77
2021/12/13 04:40:51;;;;;;;6.67;3.50;;;;;;;18.35;38.72;101897.00;5052010;28;20060;-77
2021/12/13 04:43:20;;;;;;;3.75;3.00;;;;;;;18.35;38.83;101888.94;5053389;28;20863;-77
2021/12/13 04:45:57;;;;;;;4.50;3.60;;;;;;;18.36;38.73;101896.06;5052227;28;20052;-77
2021/12/13 04:48:30;;;;;;;3.65;2.95;;;;;;;18.35;38.32;101905.91;5052723;28;20053;-77
2021/12/13 04:51:01;;;;;;;5.13;3.70;;;;;;;18.35;38.67;101905.91;5053778;28;20049;-77
2021/12/13 04:53:36;;;;;;;4.53;3.65;;;;;;;18.34;38.56;101901.50;5053685;28;20044;-77
2021/12/13 04:56:09;;;;;;;3.80;3.25;;;;;;;18.34;38.67;101901.50;5053705;28;20049;-77
2021/12/13 04:58:39;;;;;;;4.35;3.72;;;;;;;18.34;38.68;101900.63;5053749;28;20053;-77
2021/12/13 05:01:10;;;;;;;4.75;3.63;;;;;;;18.35;38.57;101907.72;5052994;28;20055;-76
2021/12/13 05:03:44;;;;;;;4.97;3.58;;;;;;;18.33;38.67;101901.59;5051676;28;20058;-77
2021/12/13 05:06:17;;;;;;;4.90;3.47;;;;;;;18.34;38.61;101908.69;5052290;28;20053;-76
2021/12/13 05:08:48;;;;;;;3.65;2.83;;;;;;;18.33;38.68;101905.16;5053881;28;20058;-77
2021/12/13 05:11:17;;;;;;;3.22;2.67;;;;;;;18.34;38.80;101914.03;5053876;28;20057;-77
2021/12/13 05:13:46;;;;;;;4.25;3.38;;;;;;;18.33;38.64;101917.69;5053490;28;20488;-77
2021/12/13 05:16:16;;;;;;;4.78;3.40;;;;;;;18.33;38.75;101923.91;5053023;28;20092;-77
2021/12/13 05:18:50;;;;;;;5.13;3.10;;;;;;;18.32;38.74;101914.16;5053706;28;20053;-77
2021/12/13 05:21:36;;;;;;;4.00;3.00;;;;;;;18.33;38.73;101912.31;5051627;28;20056;-77
2021/12/13 05:24:10;;;;;;;4.30;3.03;;;;;;;18.32;38.79;101915.97;5053292;28;20037;-77
2021/12/13 05:26:50;;;;;;;3.80;2.42;;;;;;;18.31;38.78;101916.91;5056135;28;20045;-77
2021/12/13 05:29:40;;;;;;;6.65;3.05;;;;;;;18.29;38.68;101917.03;5057136;28;20477;-78
2021/12/13 05:32:13;;;;;;;4.07;3.17;;;;;;;18.29;38.76;101920.56;5057177;28;20052;-77
2021/12/13 05:34:44;;;;;;;;;;;;;;;18.27;38.78;101919.81;5056645;28;20053;-77
2021/12/13 05:37:12;;;;;;;4.22;2.90;;;;;;;18.27;38.73;101918.94;5057430;28;20364;-77
2021/12/13 05:40:00;;;;;;;4.68;3.05;;;;;;;18.26;38.62;101919.88;5057186;28;20045;-77
2021/12/13 05:42:42;;;;;;;7.53;3.17;;;;;;;18.25;38.75;101921.72;5056595;28;20408;-77
2021/12/13 05:45:18;;;;;;;3.60;2.65;;;;;;;18.25;38.65;101926.22;5057328;28;20480;-77
2021/12/13 05:48:10;;;;;;;4.28;3.13;;;;;;;18.25;38.63;101929.75;5057347;28;20475;-76
2021/12/13 05:50:37;;;;;;;3.67;2.88;;;;;;;18.25;38.63;101931.59;5057426;28;20457;-76
2021/12/13 05:53:27;;;;;;;3.92;2.97;;;;;;;18.24;38.50;101929.88;5055416;28;20041;-76
2021/12/13 05:56:00;;;;;;;4.47;2.80;;;;;;;18.24;38.48;101935.22;5057320;28;20049;-76
2021/12/13 05:58:28;;;;;;;4.68;3.30;;;;;;;18.24;38.40;101932.56;5056465;28;20045;-76
2021/12/13 06:00:58;;;;;;;3.28;2.45;;;;;;;18.24;38.28;101929.88;5056912;28;20045;-76
2021/12/13 06:03:35;;;;;;;3.72;3.00;;;;;;;18.23;38.36;101934.38;5057085;28;20392;-76
2021/12/13 06:06:10;;;;;;;3.50;2.80;;;;;;;18.22;38.34;101935.31;5056880;28;20076;-76
2021/12/13 06:08:44;;;;;;;5.22;2.95;;;;;;;18.23;38.29;101944.19;5056851;28;20384;-77
2021/12/13 06:11:19;;;;;;;3.75;2.97;;;;;;;18.22;38.28;101939.81;5057047;28;20052;-76
2021/12/13 06:13:47;;;;;;;4.25;2.83;;;;;;;18.23;38.31;101946.88;5055433;28;20056;-76
2021/12/13 06:16:34;;;;;;;4.15;2.38;;;;;;;18.22;38.17;101942.50;5056196;28;20400;-76
2021/12/13 06:19:06;;;;;;;3.83;3.17;;;;;;;18.23;38.18;101949.56;5055270;28;20053;-76
2021/12/13 06:21:55;;;;;;;3.75;2.55;;;;;;;18.22;38.31;101947.84;5054458;28;20056;-76
2021/12/13 06:24:28;;;;;;;3.88;2.90;;;;;;;18.21;38.32;101941.63;5056502;28;20052;-76
2021/12/13 06:27:07;;;;;;;3.45;2.75;;;;;;;18.21;38.34;101946.13;5055274;28;20127;-76
2021/12/13 06:30:06;;;;;;;4.95;2.72;;;;;;;18.20;38.38;101947.97;5055388;28;20056;-76
2021/12/13 06:32:54;;;;;;;3.65;2.67;;;;;;;18.20;38.19;101952.47;5056349;28;20405;-76
2021/12/13 06:35:37;;;;;;;3.72;2.40;;;;;;;18.20;38.30;101947.97;5056618;28;20068;-76
2021/12/13 06:38:42;;;;;;;4.00;2.78;;;;;;;18.20;38.26;101947.97;5056085;28;20468;-76
2021/12/13 06:41:51;;;;;;;4.15;2.72;;;;;;;18.18;38.20;101940.97;5055542;28;20057;-77
2021/12/13 06:44:29;;;;;;;5.30;2.30;;;;;;;18.19;38.37;101932.84;5016195;28;20049;-76
2021/12/13 06:47:11;;;;;;;3.40;2.30;;;;;;;18.19;38.42;101932.84;5034083;28;20477;-76
2021/12/13 06:49:48;;;;;;;4.35;2.67;;;;;;;18.19;38.58;101924.81;5018028;28;20389;-76
2021/12/13 06:52:15;;;;;;;5.10;2.55;;;;;;;18.18;38.44;101931.09;5034015;28;20053;-76
2021/12/13 06:54:46;;;;;;;5.97;2.97;;;;;;;18.17;38.61;101924.03;5033598;28;20057;-77
2021/12/13 06:57:18;;;;;;;3.78;2.42;;;;;;;18.18;38.77;101935.59;5033317;28;20053;-77
2021/12/13 06:59:54;;;;;;;4.53;2.67;;;;;;;18.18;38.77;101931.09;5033563;28;20539;-77
2021/12/13 07:02:35;;;;;;;4.28;2.30;;;;;;;18.18;38.56;101932.94;5033567;28;20065;-77
2021/12/13 07:05:03;;;;;;;4.70;2.80;;;;;;;18.18;38.56;101927.56;5033944;28;20049;-77
2021/12/13 07:07:38;;;;;;;5.60;2.40;;;;;;;18.17;38.63;101932.06;5033779;28;20058;-77
2021/12/13 07:10:14;;;;;;;3.97;2.22;;;;;;;18.17;38.89;101934.75;5033568;28;20049;-77
2021/12/13 07:12:49;;;;;;;4.20;2.45;;;;;;;18.18;38.80;101935.59;5033412;28;20065;-77
2021/12/13 07:16:06;;;;;;;3.45;2.50;;;;;;;18.19;38.74;101937.31;5033330;28;20061;-76
2021/12/13 07:18:47;;;;;;;3.70;2.45;;;;;;;18.18;38.87;101938.28;4933706;29;20442;-76
2021/12/13 07:21:19;;;;;;;7.68;2.83;;;;;;;18.18;38.88;101931.09;4969869;28;20058;-77
2021/12/13 07:24:02;;;;;;;7.95;2.67;;;;;;;18.19;39.01;101926.59;4974554;28;20105;-76
2021/12/13 07:26:42;;;;;;;3.30;2.85;;;;;;;18.18;38.90;101936.47;4974626;28;20050;-76
2021/12/13 07:29:20;;;;;;;6.55;2.88;;;;;;;18.18;39.00;101949.00;4974955;28;20061;-76
2021/12/13 07:32:07;;;;;;;3.92;2.70;;;;;;;18.18;38.95;101946.31;4974920;28;20058;-80
2021/12/13 07:34:47;;;;;;;4.97;2.72;;;;;;;18.18;38.89;101946.31;4935834;29;20059;-77
2021/12/13 07:37:15;;;;;;;3.70;2.88;;;;;;;18.17;39.08;101940.09;4935750;29;20520;-76
2021/12/13 07:39:43;;;;;;;4.63;3.03;;;;;;;18.19;38.56;101946.25;4935365;29;20444;-76
2021/12/13 07:42:13;;;;;;;7.85;2.95;;;;;;;18.19;38.67;101951.59;4935124;29;20059;-76
2021/12/13 07:44:47;;;;;;;5.15;2.85;;;;;;;18.18;38.79;101944.50;4935272;29;20095;-76
2021/12/13 07:47:22;;;;;;;5.30;3.30;;;;;;;18.18;38.88;101940.97;4935577;29;20095;-76
2021/12/13 07:49:53;;;;;;;4.13;3.15;;;;;;;18.17;38.65;101950.81;4935009;29;20064;-76
2021/12/13 07:52:26;;;;;;;6.10;2.83;;;;;;;18.18;39.29;101957.91;4935324;29;20068;-76
2021/12/13 07:54:54;;;;;;;6.07;3.10;;;;;;;18.17;39.60;101964.22;4952561;28;20053;-76
2021/12/13 07:57:30;;;;;;;6.85;3.25;;;;;;;18.15;39.65;101966.16;5012523;28;20421;-76
2021/12/13 07:59:58;;;;;;;5.13;3.05;;;;;;;18.14;39.41;101969.78;4996123;28;20065;-76
2021/12/13 08:02:33;;;;;;;15.02;3.70;;;;;;;18.15;39.41;101976.00;5010419;28;20169;-76
2021/12/13 08:05:08;;;;;;;4.75;3.13;;;;;;;18.14;39.46;101977.81;4992805;28;20050;-76
2021/12/13 08:07:47;;;;;;;6.68;3.65;;;;;;;18.13;39.21;101970.75;4992669;28;20066;-76
2021/12/13 08:10:20;;;;;;;4.53;3.53;;;;;;;18.13;39.26;101977.91;4992776;28;20061;-76
2021/12/13 08:13:12;;;;;;;4.70;3.22;;;;;;;18.13;39.14;101977.91;5043392;28;20056;-76
2021/12/13 08:16:04;;;;;;;6.40;3.05;;;;;;;18.11;39.16;101988.75;5063928;28;20056;-76
2021/12/13 08:18:35;;;;;;;4.72;3.38;;;;;;;18.12;39.07;101994.97;5061219;28;20045;-76
2021/12/13 08:21:09;;;;;;;5.03;3.67;;;;;;;18.11;39.01;101988.75;5069209;28;20064;-76
2021/12/13 08:23:46;;;;;;;4.55;3.50;;;;;;;18.12;38.93;101986.94;5053891;28;20499;-76
2021/12/13 08:26:23;;;;;;;4.80;3.17;;;;;;;18.11;38.92;101991.44;5053952;28;20056;-76
2021/12/13 08:28:53;;;;;;;5.43;3.38;;;;;;;18.12;39.09;102003.00;5053984;28;20056;-77
2021/12/13 08:31:28;;;;;;;6.10;3.60;;;;;;;18.12;39.03;102006.53;5054109;28;20041;-76
2021/12/13 08:34:08;;;;;;;6.30;3.55;;;;;;;18.12;39.23;102011.91;5053697;28;20033;-77
2021/12/13 08:36:41;;;;;;;13.60;4.03;;;;;;;18.13;39.06;102010.09;5053980;28;20052;-78
2021/12/13 08:39:12;;;;;;;6.82;3.55;;;;;;;18.11;38.77;102002.16;5053994;28;20056;-77
2021/12/13 08:41:41;;;;;;;6.00;3.40;;;;;;;18.11;38.91;102018.22;5052320;28;20049;-77
2021/12/13 08:44:12;;;;;;;8.00;3.67;;;;;;;18.10;38.52;102005.75;5053586;28;20045;-77
2021/12/13 08:46:45;;;;;;;5.15;3.47;;;;;;;18.09;38.36;102022.81;5053706;28;20056;-78
2021/12/13 08:49:19;;;;;;;6.60;3.88;;;;;;;18.08;37.49;102029.13;5053871;28;20049;-77
2021/12/13 08:52:23;;;;;;;3.85;3.00;;;;;;;18.07;37.83;102037.25;5053499;28;20052;-77
2021/12/13 08:54:57;;;;;;;4.05;2.83;;;;;;;18.08;37.69;102031.81;5053782;28;20044;-77
2021/12/13 08:57:30;;;;;;;6.43;3.60;;;;;;;18.07;37.65;102032.78;5053298;28;20052;-77
2021/12/13 09:00:00;;;;;;;10.50;3.72;;;;;;;18.06;37.68;102023.00;5053333;28;20055;-78
2021/12/13 09:02:34;;;;;;;6.03;3.70;;;;;;;18.07;37.37;102029.19;5067022;28;20412;-77
2021/12/13 09:05:17;;;;;;;5.63;4.28;;;;;;;18.09;37.72;102038.03;5053744;28;20044;-78
2021/12/13 09:07:55;;;;;;;6.25;4.00;;;;;;;18.06;38.00;102044.41;5053641;28;20045;-77
2021/12/13 09:10:43;;;;;;;5.88;3.50;;;;;;;18.04;37.88;102043.69;5052803;28;20064;-77
2021/12/13 09:13:13;;;;;;;3.85;2.88;;;;;;;18.04;37.68;102047.22;5046824;28;20040;-77
2021/12/13 09:15:42;;;;;;;5.57;3.65;;;;;;;18.04;37.74;102046.34;5051974;28;20044;-77
2021/12/13 09:18:18;;;;;;;5.40;3.92;;;;;;;18.04;37.72;102051.72;5053292;28;20492;-77
2021/12/13 09:20:50;;;;;;;5.13;3.60;;;;;;;18.03;37.53;102055.34;5051573;28;20060;-77
2021/12/13 09:23:20;;;;;;;5.93;3.30;;;;;;;18.03;37.42;102044.63;5052970;28;20049;-77
2021/12/13 09:26:02;;;;;;;5.68;4.03;;;;;;;18.01;37.07;102047.38;5053072;28;20413;-77
2021/12/13 09:28:42;;;;;;;5.32;3.45;;;;;;;18.02;36.90;102045.56;5052238;28;20495;-77
2021/12/13 09:31:15;;;;;;;6.50;3.92;;;;;;;18.01;36.90;102049.22;5053111;28;20045;-77
2021/12/13 09:33:55;;;;;;;4.68;3.33;;;;;;;18.01;36.61;102050.06;5052951;28;20045;-77
2021/12/13 09:36:30;;;;;;;4.55;3.30;;;;;;;18.00;36.55;102050.19;5052586;28;20056;-77
2021/12/13 09:39:07;;;;;;;6.90;3.65;;;;;;;18.00;36.23;102047.50;5053081;28;20056;-77
2021/12/13 09:41:47;;;;;;;5.18;3.45;;;;;;;18.00;36.12;102044.81;5051589;28;20412;-77
2021/12/13 09:44:31;;;;;;;5.28;3.45;;;;;;;17.98;36.15;102044.03;5051694;28;20072;-77
2021/12/13 09:47:06;;;;;;;6.10;3.50;;;;;;;17.98;36.05;102034.16;5052823;28;20048;-77
2021/12/13 09:49:52;;;;;;;4.78;3.58;;;;;;;17.97;36.18;102034.28;5052949;28;20045;-77
2021/12/13 09:52:31;;;;;;;5.57;3.30;;;;;;;17.96;36.00;102037.91;5052622;28;20460;-77
2021/12/13 09:55:18;;;;;;;7.20;4.28;;;;;;;17.96;35.93;102040.59;5051940;28;20048;-77
2021/12/13 09:57:51;;;;;;;6.82;3.95;;;;;;;17.95;35.92;102042.41;5084401;28;20067;-77
2021/12/13 10:00:27;;;;;;;6.15;3.67;;;;;;;17.95;35.73;102034.38;5053027;28;20152;-77
2021/12/13 10:03:00;;;;;;;5.40;3.72;;;;;;;17.95;35.68;102036.22;5051501;28;20041;-77
2021/12/13 10:05:34;;;;;;;5.53;3.38;;;;;;;17.93;35.67;102030.91;5051271;28;20378;-77
2021/12/13 10:08:11;;;;;;;4.70;3.38;;;;;;;17.94;35.84;102032.63;5053078;28;20403;-77
2021/12/13 10:11:08;;;;;;;7.07;3.60;;;;;;;17.94;35.58;102027.28;5051251;28;20053;-77
2021/12/13 10:13:37;;;;;;;;;;;;;;;17.95;35.67;102030.84;5056901;28;20056;-77
2021/12/13 10:16:10;;;;;;;6.82;3.83;;;;;;;17.93;35.48;102025.56;5056214;28;19920;-77
2021/12/13 10:18:39;;;;;;;;;;;;;;;17.94;35.33;102019.25;5057051;28;20052;-76
2021/12/13 10:21:09;;;;;;;4.95;3.53;;;;;;;17.95;36.77;102009.41;5056388;28;20292;-76
2021/12/13 10:23:44;;;;;;;4.80;3.10;;;;;;;17.95;37.12;102020.13;5056308;28;20480;-76
2021/12/13 10:26:30;;;;;;;5.07;3.97;;;;;;;17.95;39.04;102018.31;5056262;28;20045;-76
2021/12/13 10:29:01;;;;;;;4.70;3.28;;;;;;;17.95;38.78;102012.09;5054789;28;20053;-76
2021/12/13 10:31:34;;;;;;;6.57;3.63;;;;;;;17.94;39.70;102013.03;5056007;28;20095;-76
2021/12/13 10:34:06;;;;;;;6.70;3.55;;;;;;;17.93;40.49;102013.97;5055922;28;20397;-76
2021/12/13 10:36:37;;;;;;;4.75;3.40;;;;;;;17.92;41.15;102007.78;5056359;28;20384;-76
2021/12/13 10:39:10;;;;;;;5.05;3.13;;;;;;;17.91;41.67;102014.09;5056104;28;20045;-76
2021/12/13 10:42:02;;;;;;;5.63;3.43;;;;;;;17.91;42.14;102013.22;5082286;28;20056;-77
2021/12/13 10:44:30;;;;;;;5.07;3.08;;;;;;;17.90;42.33;102008.81;5055542;28;20286;-76
2021/12/13 10:47:05;;;;;;;4.70;3.15;;;;;;;17.89;42.77;102007.09;5054250;28;20044;-76
2021/12/13 10:49:37;;;;;;;4.43;3.45;;;;;;;17.88;42.81;102002.69;5055996;28;20052;-76
2021/12/13 10:52:13;;;;;;;4.43;3.60;;;;;;;17.87;42.99;102001.84;5054450;28;20115;-76
2021/12/13 10:54:51;;;;;;;4.43;3.15;;;;;;;17.87;43.36;102006.34;5053897;28;20056;-76
2021/12/13 10:57:26;;;;;;;6.03;3.72;;;;;;;17.86;43.30;102009.94;5055501;28;20386;-76
2021/12/13 10:59:55;;;;;;;5.65;3.30;;;;;;;17.86;43.47;102001.91;5055430;28;20041;-76
2021/12/13 11:02:30;;;;;;;4.45;3.42;;;;;;;17.86;43.54;102001.91;5055030;28;20045;-77
2021/12/13 11:05:12;;;;;;;5.32;3.03;;;;;;;17.86;43.48;102001.91;5055594;28;20504;-77
2021/12/13 11:07:40;;;;;;;4.75;3.20;;;;;;;17.85;43.63;102006.41;5087008;28;20049;-77
2021/12/13 11:10:12;;;;;;;4.88;2.88;;;;;;;17.84;43.88;101999.34;5055061;28;20045;-76
2021/12/13 11:12:45;;;;;;;4.78;3.50;;;;;;;17.84;43.82;101993.13;5054137;28;20045;-76
2021/12/13 11:15:23;;;;;;;4.10;2.83;;;;;;;17.83;43.99;101999.44;5055362;28;20389;-77
2021/12/13 11:17:54;;;;;;;4.05;3.28;;;;;;;17.84;43.84;101995.81;5054853;28;20056;-76
2021/12/13 11:20:33;;;;;;;4.60;3.38;;;;;;;17.83;43.96;101996.78;5055192;28;20049;-76
2021/12/13 11:23:01;;;;;;;5.03;2.95;;;;;;;17.83;44.02;101988.72;5053476;28;20048;-76
2021/12/13 11:25:36;;;;;;;5.07;3.13;;;;;;;17.82;44.32;101987.84;5054694;28;20400;-76
2021/12/13 11:28:04;;;;;;;4.38;2.83;;;;;;;17.83;44.22;101988.72;5054035;28;20049;-76
2021/12/13 11:30:35;;;;;;;4.57;2.85;;;;;;;17.82;44.59;101978.94;5053126;28;20048;-77
2021/12/13 11:33:20;;;;;;;5.57;2.83;;;;;;;17.82;45.02;101984.31;5055176;28;20049;-76
2021/12/13 11:36:18;;;;;;;4.88;3.30;;;;;;;17.82;45.89;101984.31;5036866;28;20496;-76
2021/12/13 11:39:14;;;;;;;5.25;3.00;;;;;;;17.82;45.27;101968.25;5054737;28;20048;-77
2021/12/13 11:42:07;;;;;;;6.47;2.97;;;;;;;17.81;45.33;101967.38;5053558;28;20056;-77
2021/12/13 11:45:12;;;;;;;4.15;3.33;;;;;;;17.82;45.25;101968.25;5053273;28;20052;-77
2021/12/13 11:48:03;;;;;;;4.60;2.90;;;;;;;17.81;45.19;101947.78;5054489;28;20055;-77
2021/12/13 11:51:07;;;;;;;4.82;2.95;;;;;;;17.81;45.33;101945.09;5054248;28;20408;-77
2021/12/13 11:53:56;;;;;;;5.45;2.53;;;;;;;17.81;45.43;101942.41;5054297;28;20064;-76
2021/12/13 11:56:42;;;;;;;5.78;3.38;;;;;;;17.80;45.53;101936.19;5052895;28;20048;-77
2021/12/13 11:59:10;;;;;;;4.20;2.70;;;;;;;17.80;45.29;101936.19;5054580;28;20041;-77
2021/12/13 12:02:04;;;;;;;3.90;2.97;;;;;;;17.79;45.19;101932.66;5053098;28;20049;-76
2021/12/13 12:05:08;;;;;;;3.90;2.90;;;;;;;17.79;45.12;101929.97;5053954;28;20476;-76
2021/12/13 12:08:03;;;;;;;4.85;3.38;;;;;;;17.70;42.37;101935.00;5053963;28;20048;-75
2021/12/13 12:10:46;;;;;;;4.15;3.10;;;;;;;17.69;44.74;101925.25;5052676;28;20404;-75
2021/12/13 12:13:41;;;;;;;4.80;3.33;;;;;;;17.69;44.77;101923.44;5053947;28;20051;-75
2021/12/13 12:16:08;;;;;;;6.65;3.25;;;;;;;17.70;44.70;101925.16;5053834;28;20049;-75
2021/12/13 12:18:39;;;;;;;7.75;2.92;;;;;;;17.71;44.85;101912.63;5053941;28;20045;-76
2021/12/13 12:21:31;;;;;;;4.85;2.95;;;;;;;17.73;45.37;101924.09;5053469;28;20401;-75
2021/12/13 12:24:02;;;;;;;5.22;3.67;;;;;;;17.71;44.62;101918.84;5053005;28;20432;-75
2021/12/13 12:26:30;;;;;;;5.57;3.13;;;;;;;17.70;45.60;101919.81;5053818;28;20496;-75
2021/12/13 12:28:59;;;;;;;4.55;3.00;;;;;;;17.70;46.18;101925.16;5053526;28;20044;-75